Pagrindinis puslapis
METAR-TAF:

METAR-TAF

Oro uostai :

Subic Bay, Filipinai

platuma: 14-48N, ilguma: 120-16E, Aukštis: 18 m

Dabartinis oras

Ataskaita buvo paskelbta 1 valandą ir 4 minutes, ne 17:00 UTC
Vėjas 3 kt iš Šiaurės Rytų
Temperatūra 26°C
Drėgmė 94%
Slėgis 1007 hPa
Matomumas 10 km arba daugiau
Mažai debesys ne aukštis 2000 ft

METAR: RPLB 301700Z 04003KT 9999 FEW020 26/25 Q1007 NOSIG RMK A2974

Laikas: 02:04 (18:04 UTC)

Prognozė

Ataskaita buvo paskelbta 1 valandą ir 4 minutes, ne 17:00 UTC
Prognozė galioja nuo 30 metu 18 UTC su 01 metu 18 UTC
Vėjas 4 kt iš Pietvakarių
Matomumas 10 km arba daugiau
Mažai debesys ne aukštis 2000 ft
Su prošvaistėmis ne aukštis 30000 ft
Laikinai
nuo 30 metu 18 UTC su 30 metu 24 UTC
Vėjas 5 kt iš Šiaurės Rytų
Mažai debesys ne aukštis 1800 ft, Liūtiniai kamuoliniai debesys.
Mažai debesys ne aukštis 2000 ft
Su prošvaistėmis ne aukštis 8000 ft

TAF: RPLB 301700Z 3018/0118 22004KT 9999 FEW020 BKN300 TX32/0106Z TN25/3020Z TEMPO 3018/3024 05005KT FEW018CB FEW020 BKN080

Orai ataskaitas ir orų prognozės (METAR, TAF).

turimą stotys yra geltonos ir raudonos taškus žemėlapyje.

Perkelti pele per norėdami pamatyti stoties vardą.

Tada spustelėkite, norėdami matyti oro stebėjimo ir prognozės.

Norėdami pakeisti žemėlapį: spustelėkite ant žalios mygtukų su juodo kryžiaus žemyn,; žalią mygtuką su brūkšneliu, jei norite nutolinti; arba žalių rodyklių gretimoms žemėlapius.


METAR-TAF: